sensor_id;sensor_type;location;lat;lon;timestamp;P1;durP1;ratioP1;P2;durP2;ratioP2
62696;SDS011;48761;42.680;23.312;2022-12-29T00:00:48;56.92;;;34.53;;
62696;SDS011;48761;42.680;23.312;2022-12-29T00:03:15;54.53;;;33.88;;
62696;SDS011;48761;42.680;23.312;2022-12-29T00:05:41;53.00;;;33.92;;
62696;SDS011;48761;42.680;23.312;2022-12-29T00:08:08;58.55;;;33.25;;
62696;SDS011;48761;42.680;23.312;2022-12-29T00:10:33;48.58;;;30.70;;
62696;SDS011;48761;42.680;23.312;2022-12-29T00:12:59;49.22;;;29.95;;
62696;SDS011;48761;42.680;23.312;2022-12-29T00:15:26;50.90;;;31.25;;
62696;SDS011;48761;42.680;23.312;2022-12-29T00:17:51;52.72;;;32.55;;
62696;SDS011;48761;42.680;23.312;2022-12-29T00:20:17;50.28;;;30.50;;
62696;SDS011;48761;42.680;23.312;2022-12-29T00:22:43;50.88;;;28.50;;
62696;SDS011;48761;42.680;23.312;2022-12-29T00:25:10;54.33;;;33.15;;
62696;SDS011;48761;42.680;23.312;2022-12-29T00:27:37;47.95;;;29.65;;
62696;SDS011;48761;42.680;23.312;2022-12-29T00:30:10;47.67;;;28.65;;
62696;SDS011;48761;42.680;23.312;2022-12-29T00:32:47;45.53;;;27.27;;
62696;SDS011;48761;42.680;23.312;2022-12-29T00:35:14;41.38;;;26.20;;
62696;SDS011;48761;42.680;23.312;2022-12-29T00:37:48;43.50;;;27.63;;
62696;SDS011;48761;42.680;23.312;2022-12-29T00:40:15;43.20;;;27.27;;
62696;SDS011;48761;42.680;23.312;2022-12-29T00:42:41;52.63;;;30.75;;
62696;SDS011;48761;42.680;23.312;2022-12-29T00:45:07;50.03;;;29.40;;
62696;SDS011;48761;42.680;23.312;2022-12-29T00:47:33;55.08;;;31.00;;
62696;SDS011;48761;42.680;23.312;2022-12-29T00:49:59;53.35;;;30.80;;
62696;SDS011;48761;42.680;23.312;2022-12-29T00:52:25;47.47;;;29.85;;
62696;SDS011;48761;42.680;23.312;2022-12-29T00:54:51;55.40;;;32.13;;
62696;SDS011;48761;42.680;23.312;2022-12-29T00:57:17;51.17;;;32.17;;
62696;SDS011;48761;42.680;23.312;2022-12-29T00:59:43;49.35;;;31.27;;
62696;SDS011;48761;42.680;23.312;2022-12-29T01:02:10;47.95;;;30.23;;
62696;SDS011;48761;42.680;23.312;2022-12-29T01:04:36;54.50;;;31.73;;
62696;SDS011;48761;42.680;23.312;2022-12-29T01:07:02;48.60;;;29.48;;
62696;SDS011;48761;42.680;23.312;2022-12-29T01:09:28;46.75;;;28.20;;
62696;SDS011;48761;42.680;23.312;2022-12-29T01:11:54;48.08;;;27.90;;
62696;SDS011;48761;42.680;23.312;2022-12-29T01:14:21;41.55;;;25.92;;
62696;SDS011;48761;42.680;23.312;2022-12-29T01:16:48;44.58;;;26.90;;
62696;SDS011;48761;42.680;23.312;2022-12-29T01:19:14;50.45;;;27.77;;
62696;SDS011;48761;42.680;23.312;2022-12-29T01:21:41;51.80;;;27.73;;
62696;SDS011;48761;42.680;23.312;2022-12-29T01:24:08;43.53;;;27.63;;
62696;SDS011;48761;42.680;23.312;2022-12-29T01:26:34;42.78;;;25.77;;
62696;SDS011;48761;42.680;23.312;2022-12-29T01:29:00;44.88;;;25.73;;
62696;SDS011;48761;42.680;23.312;2022-12-29T01:31:26;42.88;;;26.38;;
62696;SDS011;48761;42.680;23.312;2022-12-29T01:33:52;44.08;;;26.75;;
62696;SDS011;48761;42.680;23.312;2022-12-29T01:36:18;42.15;;;25.63;;
62696;SDS011;48761;42.680;23.312;2022-12-29T01:38:44;43.92;;;25.88;;
62696;SDS011;48761;42.680;23.312;2022-12-29T01:41:11;45.10;;;25.80;;
62696;SDS011;48761;42.680;23.312;2022-12-29T01:43:57;44.25;;;25.60;;
62696;SDS011;48761;42.680;23.312;2022-12-29T01:46:37;37.85;;;24.80;;
62696;SDS011;48761;42.680;23.312;2022-12-29T01:49:39;42.07;;;25.60;;
62696;SDS011;48761;42.680;23.312;2022-12-29T01:51:59;38.50;;;25.40;;
62696;SDS011;48761;42.680;23.312;2022-12-29T01:54:37;41.28;;;25.45;;
62696;SDS011;48761;42.680;23.312;2022-12-29T01:57:12;38.13;;;23.63;;
62696;SDS011;48761;42.680;23.312;2022-12-29T01:59:43;34.50;;;22.65;;
62696;SDS011;48761;42.680;23.312;2022-12-29T02:02:16;39.22;;;23.33;;
62696;SDS011;48761;42.680;23.312;2022-12-29T02:04:42;36.03;;;22.67;;
62696;SDS011;48761;42.680;23.312;2022-12-29T02:07:10;37.38;;;23.42;;
62696;SDS011;48761;42.680;23.312;2022-12-29T02:09:42;34.65;;;21.83;;
62696;SDS011;48761;42.680;23.312;2022-12-29T02:12:09;37.88;;;22.05;;
62696;SDS011;48761;42.680;23.312;2022-12-29T02:14:35;37.03;;;22.90;;
62696;SDS011;48761;42.680;23.312;2022-12-29T02:25:58;34.72;;;21.92;;
62696;SDS011;48761;42.680;23.312;2022-12-29T02:36:40;36.65;;;21.55;;
62696;SDS011;48761;42.680;23.312;2022-12-29T02:39:50;35.15;;;21.08;;
62696;SDS011;48761;42.680;23.312;2022-12-29T02:42:29;34.17;;;21.48;;
62696;SDS011;48761;42.680;23.312;2022-12-29T02:45:22;33.95;;;21.50;;
62696;SDS011;48761;42.680;23.312;2022-12-29T02:48:20;33.17;;;21.13;;
62696;SDS011;48761;42.680;23.312;2022-12-29T02:51:06;29.98;;;19.75;;
62696;SDS011;48761;42.680;23.312;2022-12-29T02:53:38;34.45;;;21.00;;
62696;SDS011;48761;42.680;23.312;2022-12-29T02:56:04;33.78;;;21.45;;
62696;SDS011;48761;42.680;23.312;2022-12-29T02:58:30;34.72;;;21.00;;
62696;SDS011;48761;42.680;23.312;2022-12-29T03:06:56;32.65;;;20.05;;
62696;SDS011;48761;42.680;23.312;2022-12-29T03:12:39;30.05;;;19.80;;
62696;SDS011;48761;42.680;23.312;2022-12-29T03:15:20;32.50;;;19.58;;
62696;SDS011;48761;42.680;23.312;2022-12-29T03:17:57;33.13;;;19.75;;
62696;SDS011;48761;42.680;23.312;2022-12-29T03:21:14;30.15;;;19.35;;
62696;SDS011;48761;42.680;23.312;2022-12-29T03:23:21;27.20;;;18.80;;
62696;SDS011;48761;42.680;23.312;2022-12-29T03:25:51;31.38;;;20.02;;
62696;SDS011;48761;42.680;23.312;2022-12-29T03:28:24;31.23;;;20.90;;
62696;SDS011;48761;42.680;23.312;2022-12-29T03:30:55;32.92;;;20.80;;
62696;SDS011;48761;42.680;23.312;2022-12-29T03:33:25;33.55;;;19.67;;
62696;SDS011;48761;42.680;23.312;2022-12-29T03:35:55;35.72;;;20.40;;
62696;SDS011;48761;42.680;23.312;2022-12-29T03:38:27;32.53;;;20.73;;
62696;SDS011;48761;42.680;23.312;2022-12-29T03:41:02;32.80;;;19.95;;
62696;SDS011;48761;42.680;23.312;2022-12-29T03:45:59;34.20;;;19.85;;
62696;SDS011;48761;42.680;23.312;2022-12-29T03:48:25;33.58;;;19.95;;
62696;SDS011;48761;42.680;23.312;2022-12-29T03:50:50;34.72;;;20.95;;
62696;SDS011;48761;42.680;23.312;2022-12-29T03:53:16;33.13;;;21.27;;
62696;SDS011;48761;42.680;23.312;2022-12-29T03:55:42;33.58;;;21.63;;
62696;SDS011;48761;42.680;23.312;2022-12-29T03:58:08;34.63;;;22.23;;
62696;SDS011;48761;42.680;23.312;2022-12-29T04:00:34;36.55;;;22.42;;
62696;SDS011;48761;42.680;23.312;2022-12-29T04:03:00;41.40;;;23.58;;
62696;SDS011;48761;42.680;23.312;2022-12-29T04:05:26;37.70;;;23.67;;
62696;SDS011;48761;42.680;23.312;2022-12-29T04:07:52;37.20;;;23.15;;
62696;SDS011;48761;42.680;23.312;2022-12-29T04:10:19;37.50;;;22.27;;
62696;SDS011;48761;42.680;23.312;2022-12-29T04:12:45;36.50;;;22.90;;
62696;SDS011;48761;42.680;23.312;2022-12-29T04:15:11;39.22;;;22.70;;
62696;SDS011;48761;42.680;23.312;2022-12-29T04:17:37;35.28;;;22.55;;
62696;SDS011;48761;42.680;23.312;2022-12-29T04:20:04;33.00;;;21.35;;
62696;SDS011;48761;42.680;23.312;2022-12-29T04:22:30;36.42;;;21.85;;
62696;SDS011;48761;42.680;23.312;2022-12-29T04:24:56;42.45;;;22.70;;
62696;SDS011;48761;42.680;23.312;2022-12-29T04:27:22;35.50;;;21.83;;
62696;SDS011;48761;42.680;23.312;2022-12-29T04:29:48;35.47;;;23.02;;
62696;SDS011;48761;42.680;23.312;2022-12-29T04:32:13;34.63;;;22.83;;
62696;SDS011;48761;42.680;23.312;2022-12-29T04:34:39;36.75;;;23.55;;
62696;SDS011;48761;42.680;23.312;2022-12-29T04:37:05;48.10;;;24.50;;
62696;SDS011;48761;42.680;23.312;2022-12-29T04:39:31;37.60;;;22.65;;
62696;SDS011;48761;42.680;23.312;2022-12-29T04:41:57;40.95;;;24.33;;
62696;SDS011;48761;42.680;23.312;2022-12-29T04:44:23;39.47;;;24.13;;
62696;SDS011;48761;42.680;23.312;2022-12-29T04:46:49;37.17;;;23.05;;
62696;SDS011;48761;42.680;23.312;2022-12-29T04:49:15;43.42;;;24.05;;
62696;SDS011;48761;42.680;23.312;2022-12-29T04:51:41;36.70;;;22.80;;
62696;SDS011;48761;42.680;23.312;2022-12-29T04:54:06;35.45;;;22.95;;
62696;SDS011;48761;42.680;23.312;2022-12-29T04:56:32;35.90;;;22.88;;
62696;SDS011;48761;42.680;23.312;2022-12-29T04:58:58;39.10;;;23.42;;
62696;SDS011;48761;42.680;23.312;2022-12-29T05:01:24;34.85;;;22.45;;
62696;SDS011;48761;42.680;23.312;2022-12-29T05:03:50;34.22;;;21.65;;
62696;SDS011;48761;42.680;23.312;2022-12-29T05:06:16;36.65;;;22.83;;
62696;SDS011;48761;42.680;23.312;2022-12-29T05:08:42;39.22;;;22.75;;
62696;SDS011;48761;42.680;23.312;2022-12-29T05:11:08;37.67;;;22.45;;
62696;SDS011;48761;42.680;23.312;2022-12-29T05:13:34;34.97;;;22.55;;
62696;SDS011;48761;42.680;23.312;2022-12-29T05:16:00;39.28;;;22.88;;
62696;SDS011;48761;42.680;23.312;2022-12-29T05:18:26;36.67;;;22.27;;
62696;SDS011;48761;42.680;23.312;2022-12-29T05:20:52;35.58;;;21.85;;
62696;SDS011;48761;42.680;23.312;2022-12-29T05:23:17;39.55;;;21.77;;
62696;SDS011;48761;42.680;23.312;2022-12-29T05:25:43;35.05;;;22.75;;
62696;SDS011;48761;42.680;23.312;2022-12-29T05:28:09;40.42;;;23.85;;
62696;SDS011;48761;42.680;23.312;2022-12-29T05:30:35;42.30;;;23.55;;
62696;SDS011;48761;42.680;23.312;2022-12-29T05:33:01;38.88;;;23.17;;
62696;SDS011;48761;42.680;23.312;2022-12-29T05:35:27;44.92;;;25.00;;
62696;SDS011;48761;42.680;23.312;2022-12-29T05:37:53;37.22;;;23.88;;
62696;SDS011;48761;42.680;23.312;2022-12-29T05:40:20;41.38;;;24.30;;
62696;SDS011;48761;42.680;23.312;2022-12-29T05:42:46;41.28;;;23.85;;
62696;SDS011;48761;42.680;23.312;2022-12-29T05:45:12;34.38;;;22.98;;
62696;SDS011;48761;42.680;23.312;2022-12-29T05:47:38;41.45;;;23.55;;
62696;SDS011;48761;42.680;23.312;2022-12-29T05:50:04;44.60;;;24.38;;
62696;SDS011;48761;42.680;23.312;2022-12-29T05:52:42;43.25;;;25.73;;
62696;SDS011;48761;42.680;23.312;2022-12-29T05:55:08;42.63;;;23.23;;
62696;SDS011;48761;42.680;23.312;2022-12-29T05:57:35;41.90;;;25.20;;
62696;SDS011;48761;42.680;23.312;2022-12-29T06:00:02;46.05;;;25.55;;
62696;SDS011;48761;42.680;23.312;2022-12-29T06:02:32;48.00;;;26.90;;
62696;SDS011;48761;42.680;23.312;2022-12-29T06:04:58;43.53;;;26.05;;
62696;SDS011;48761;42.680;23.312;2022-12-29T06:07:24;47.72;;;28.63;;
62696;SDS011;48761;42.680;23.312;2022-12-29T06:09:50;47.85;;;27.30;;
62696;SDS011;48761;42.680;23.312;2022-12-29T06:12:16;47.22;;;27.40;;
62696;SDS011;48761;42.680;23.312;2022-12-29T06:14:42;53.38;;;29.92;;
62696;SDS011;48761;42.680;23.312;2022-12-29T06:17:08;54.58;;;32.60;;
62696;SDS011;48761;42.680;23.312;2022-12-29T06:19:34;53.53;;;32.90;;
62696;SDS011;48761;42.680;23.312;2022-12-29T06:21:59;54.10;;;31.98;;
62696;SDS011;48761;42.680;23.312;2022-12-29T06:24:25;52.65;;;32.97;;
62696;SDS011;48761;42.680;23.312;2022-12-29T06:26:51;57.88;;;30.92;;
62696;SDS011;48761;42.680;23.312;2022-12-29T06:29:17;51.80;;;33.05;;
62696;SDS011;48761;42.680;23.312;2022-12-29T06:31:43;55.13;;;33.22;;
62696;SDS011;48761;42.680;23.312;2022-12-29T06:34:10;52.40;;;32.10;;
62696;SDS011;48761;42.680;23.312;2022-12-29T06:36:36;53.28;;;31.75;;
62696;SDS011;48761;42.680;23.312;2022-12-29T06:39:02;50.42;;;32.55;;
62696;SDS011;48761;42.680;23.312;2022-12-29T06:41:28;55.70;;;32.45;;
62696;SDS011;48761;42.680;23.312;2022-12-29T06:43:53;57.38;;;32.45;;
62696;SDS011;48761;42.680;23.312;2022-12-29T06:46:19;50.85;;;31.85;;
62696;SDS011;48761;42.680;23.312;2022-12-29T06:48:45;51.20;;;31.15;;
62696;SDS011;48761;42.680;23.312;2022-12-29T06:51:11;48.42;;;30.75;;
62696;SDS011;48761;42.680;23.312;2022-12-29T06:53:37;47.88;;;30.35;;
62696;SDS011;48761;42.680;23.312;2022-12-29T06:56:04;50.60;;;32.30;;
62696;SDS011;48761;42.680;23.312;2022-12-29T06:58:30;57.85;;;33.70;;
62696;SDS011;48761;42.680;23.312;2022-12-29T07:00:56;56.70;;;32.92;;
62696;SDS011;48761;42.680;23.312;2022-12-29T07:03:22;48.00;;;28.98;;
62696;SDS011;48761;42.680;23.312;2022-12-29T07:05:48;45.05;;;29.20;;
62696;SDS011;48761;42.680;23.312;2022-12-29T07:08:14;48.63;;;28.95;;
62696;SDS011;48761;42.680;23.312;2022-12-29T07:10:39;42.78;;;27.40;;
62696;SDS011;48761;42.680;23.312;2022-12-29T07:13:05;45.90;;;27.60;;
62696;SDS011;48761;42.680;23.312;2022-12-29T07:15:31;45.60;;;27.67;;
62696;SDS011;48761;42.680;23.312;2022-12-29T07:17:57;44.65;;;27.98;;
62696;SDS011;48761;42.680;23.312;2022-12-29T07:20:23;47.58;;;29.98;;
62696;SDS011;48761;42.680;23.312;2022-12-29T07:22:49;46.47;;;28.10;;
62696;SDS011;48761;42.680;23.312;2022-12-29T07:25:15;41.50;;;25.33;;
62696;SDS011;48761;42.680;23.312;2022-12-29T07:27:41;40.22;;;25.08;;
62696;SDS011;48761;42.680;23.312;2022-12-29T07:30:07;39.50;;;26.00;;
62696;SDS011;48761;42.680;23.312;2022-12-29T07:32:34;39.35;;;25.35;;
62696;SDS011;48761;42.680;23.312;2022-12-29T07:35:00;38.63;;;25.33;;
62696;SDS011;48761;42.680;23.312;2022-12-29T07:37:26;45.30;;;25.10;;
62696;SDS011;48761;42.680;23.312;2022-12-29T07:39:52;35.47;;;23.08;;
62696;SDS011;48761;42.680;23.312;2022-12-29T07:42:18;41.08;;;23.13;;
62696;SDS011;48761;42.680;23.312;2022-12-29T07:44:44;32.75;;;21.80;;
62696;SDS011;48761;42.680;23.312;2022-12-29T07:47:10;39.83;;;23.60;;
62696;SDS011;48761;42.680;23.312;2022-12-29T07:49:36;38.53;;;24.13;;
62696;SDS011;48761;42.680;23.312;2022-12-29T07:52:02;42.38;;;24.08;;
62696;SDS011;48761;42.680;23.312;2022-12-29T07:54:28;36.90;;;24.15;;
62696;SDS011;48761;42.680;23.312;2022-12-29T07:56:54;42.10;;;25.27;;
62696;SDS011;48761;42.680;23.312;2022-12-29T07:59:20;44.72;;;26.85;;
62696;SDS011;48761;42.680;23.312;2022-12-29T08:01:46;39.63;;;25.23;;
62696;SDS011;48761;42.680;23.312;2022-12-29T08:04:12;38.83;;;25.00;;
62696;SDS011;48761;42.680;23.312;2022-12-29T08:06:38;37.75;;;25.40;;
62696;SDS011;48761;42.680;23.312;2022-12-29T08:09:04;42.38;;;25.17;;
62696;SDS011;48761;42.680;23.312;2022-12-29T08:11:30;44.35;;;26.38;;
62696;SDS011;48761;42.680;23.312;2022-12-29T08:13:56;41.72;;;25.13;;
62696;SDS011;48761;42.680;23.312;2022-12-29T08:16:22;45.47;;;26.48;;
62696;SDS011;48761;42.680;23.312;2022-12-29T08:18:48;43.03;;;27.60;;
62696;SDS011;48761;42.680;23.312;2022-12-29T08:21:14;38.60;;;25.95;;
62696;SDS011;48761;42.680;23.312;2022-12-29T08:23:40;40.13;;;26.50;;
62696;SDS011;48761;42.680;23.312;2022-12-29T08:26:05;44.67;;;26.45;;
62696;SDS011;48761;42.680;23.312;2022-12-29T08:28:32;36.88;;;24.73;;
62696;SDS011;48761;42.680;23.312;2022-12-29T08:30:59;41.72;;;26.40;;
62696;SDS011;48761;42.680;23.312;2022-12-29T08:33:26;45.88;;;26.73;;
62696;SDS011;48761;42.680;23.312;2022-12-29T08:35:58;40.35;;;25.95;;
62696;SDS011;48761;42.680;23.312;2022-12-29T08:38:28;39.40;;;24.67;;
62696;SDS011;48761;42.680;23.312;2022-12-29T08:40:55;41.28;;;24.17;;
62696;SDS011;48761;42.680;23.312;2022-12-29T08:43:22;43.78;;;25.00;;
62696;SDS011;48761;42.680;23.312;2022-12-29T08:45:48;36.83;;;24.63;;
62696;SDS011;48761;42.680;23.312;2022-12-29T08:48:15;42.03;;;25.45;;
62696;SDS011;48761;42.680;23.312;2022-12-29T08:50:42;47.22;;;26.02;;
62696;SDS011;48761;42.680;23.312;2022-12-29T08:53:09;38.53;;;24.52;;
62696;SDS011;48761;42.680;23.312;2022-12-29T08:55:35;40.17;;;25.45;;
62696;SDS011;48761;42.680;23.312;2022-12-29T08:58:02;39.63;;;24.48;;
62696;SDS011;48761;42.680;23.312;2022-12-29T09:00:28;35.33;;;24.55;;
62696;SDS011;48761;42.680;23.312;2022-12-29T09:02:54;38.67;;;25.38;;
62696;SDS011;48761;42.680;23.312;2022-12-29T09:05:20;39.65;;;25.02;;
62696;SDS011;48761;42.680;23.312;2022-12-29T09:07:46;41.17;;;24.50;;
62696;SDS011;48761;42.680;23.312;2022-12-29T09:10:12;41.83;;;24.95;;
62696;SDS011;48761;42.680;23.312;2022-12-29T09:12:38;38.95;;;25.15;;
62696;SDS011;48761;42.680;23.312;2022-12-29T09:15:05;40.35;;;24.52;;
62696;SDS011;48761;42.680;23.312;2022-12-29T09:17:31;35.63;;;24.38;;
62696;SDS011;48761;42.680;23.312;2022-12-29T09:19:57;37.97;;;25.40;;
62696;SDS011;48761;42.680;23.312;2022-12-29T09:22:23;37.28;;;24.52;;
62696;SDS011;48761;42.680;23.312;2022-12-29T09:24:49;40.63;;;27.38;;
62696;SDS011;48761;42.680;23.312;2022-12-29T09:27:15;40.88;;;26.20;;
62696;SDS011;48761;42.680;23.312;2022-12-29T09:29:41;44.63;;;26.33;;
62696;SDS011;48761;42.680;23.312;2022-12-29T09:32:07;38.35;;;25.73;;
62696;SDS011;48761;42.680;23.312;2022-12-29T09:34:34;39.80;;;25.80;;
62696;SDS011;48761;42.680;23.312;2022-12-29T09:36:59;45.10;;;27.17;;
62696;SDS011;48761;42.680;23.312;2022-12-29T09:39:25;40.05;;;27.63;;
62696;SDS011;48761;42.680;23.312;2022-12-29T09:47:39;43.45;;;27.58;;
62696;SDS011;48761;42.680;23.312;2022-12-29T09:53:34;45.38;;;28.90;;
62696;SDS011;48761;42.680;23.312;2022-12-29T09:55:48;43.70;;;26.17;;
62696;SDS011;48761;42.680;23.312;2022-12-29T10:01:06;40.17;;;25.92;;
62696;SDS011;48761;42.680;23.312;2022-12-29T10:03:49;42.42;;;27.33;;
62696;SDS011;48761;42.680;23.312;2022-12-29T10:15:12;39.47;;;27.27;;
62696;SDS011;48761;42.680;23.312;2022-12-29T10:17:58;29.15;;;19.75;;
62696;SDS011;48761;42.680;23.312;2022-12-29T10:24:11;44.65;;;27.30;;
62696;SDS011;48761;42.680;23.312;2022-12-29T10:26:33;43.80;;;26.60;;
62696;SDS011;48761;42.680;23.312;2022-12-29T10:29:05;42.70;;;26.42;;
62696;SDS011;48761;42.680;23.312;2022-12-29T10:31:40;45.90;;;27.38;;
62696;SDS011;48761;42.680;23.312;2022-12-29T10:34:26;43.40;;;28.05;;
62696;SDS011;48761;42.680;23.312;2022-12-29T10:37:09;45.72;;;26.88;;
62696;SDS011;48761;42.680;23.312;2022-12-29T10:39:50;42.75;;;26.52;;
62696;SDS011;48761;42.680;23.312;2022-12-29T10:45:05;43.60;;;25.35;;
62696;SDS011;48761;42.680;23.312;2022-12-29T10:47:35;42.65;;;25.85;;
62696;SDS011;48761;42.680;23.312;2022-12-29T10:50:11;39.90;;;25.52;;
62696;SDS011;48761;42.680;23.312;2022-12-29T10:52:38;40.13;;;25.73;;
62696;SDS011;48761;42.680;23.312;2022-12-29T10:55:07;40.28;;;27.17;;
62696;SDS011;48761;42.680;23.312;2022-12-29T10:57:42;41.53;;;25.98;;
62696;SDS011;48761;42.680;23.312;2022-12-29T11:00:10;39.37;;;24.97;;
62696;SDS011;48761;42.680;23.312;2022-12-29T11:05:23;40.40;;;24.63;;
62696;SDS011;48761;42.680;23.312;2022-12-29T11:07:51;37.40;;;25.50;;
62696;SDS011;48761;42.680;23.312;2022-12-29T11:10:38;41.08;;;26.67;;
62696;SDS011;48761;42.680;23.312;2022-12-29T11:13:14;39.00;;;25.98;;
62696;SDS011;48761;42.680;23.312;2022-12-29T11:18:24;45.70;;;27.20;;
62696;SDS011;48761;42.680;23.312;2022-12-29T11:21:02;39.40;;;26.63;;
62696;SDS011;48761;42.680;23.312;2022-12-29T11:31:42;39.78;;;24.98;;
62696;SDS011;48761;42.680;23.312;2022-12-29T11:34:14;38.90;;;23.23;;
62696;SDS011;48761;42.680;23.312;2022-12-29T11:36:43;43.75;;;23.90;;
62696;SDS011;48761;42.680;23.312;2022-12-29T11:39:16;39.22;;;22.88;;
62696;SDS011;48761;42.680;23.312;2022-12-29T11:42:06;34.53;;;21.88;;
62696;SDS011;48761;42.680;23.312;2022-12-29T11:44:42;38.25;;;22.08;;
62696;SDS011;48761;42.680;23.312;2022-12-29T11:47:12;34.10;;;21.58;;
62696;SDS011;48761;42.680;23.312;2022-12-29T11:49:50;36.60;;;22.35;;
62696;SDS011;48761;42.680;23.312;2022-12-29T11:52:20;32.65;;;21.60;;
62696;SDS011;48761;42.680;23.312;2022-12-29T11:54:49;32.97;;;20.95;;
62696;SDS011;48761;42.680;23.312;2022-12-29T11:57:16;37.88;;;23.00;;
62696;SDS011;48761;42.680;23.312;2022-12-29T11:59:53;32.47;;;21.02;;
62696;SDS011;48761;42.680;23.312;2022-12-29T12:02:22;32.88;;;20.95;;
62696;SDS011;48761;42.680;23.312;2022-12-29T12:10:18;31.48;;;20.58;;
62696;SDS011;48761;42.680;23.312;2022-12-29T12:15:19;31.23;;;21.17;;
62696;SDS011;48761;42.680;23.312;2022-12-29T12:17:51;31.67;;;19.83;;
62696;SDS011;48761;42.680;23.312;2022-12-29T12:20:22;33.08;;;21.98;;
62696;SDS011;48761;42.680;23.312;2022-12-29T12:23:39;36.00;;;21.42;;
62696;SDS011;48761;42.680;23.312;2022-12-29T12:26:31;26.27;;;15.60;;
62696;SDS011;48761;42.680;23.312;2022-12-29T12:29:19;36.88;;;22.40;;
62696;SDS011;48761;42.680;23.312;2022-12-29T12:47:31;35.70;;;22.85;;
62696;SDS011;48761;42.680;23.312;2022-12-29T12:50:22;39.08;;;21.98;;
62696;SDS011;48761;42.680;23.312;2022-12-29T12:53:22;36.33;;;22.23;;
62696;SDS011;48761;42.680;23.312;2022-12-29T12:55:58;36.00;;;21.70;;
62696;SDS011;48761;42.680;23.312;2022-12-29T13:04:38;39.53;;;22.42;;
62696;SDS011;48761;42.680;23.312;2022-12-29T13:07:15;36.80;;;22.20;;
62696;SDS011;48761;42.680;23.312;2022-12-29T13:21:11;39.92;;;21.85;;
62696;SDS011;48761;42.680;23.312;2022-12-29T13:24:06;39.33;;;23.77;;
62696;SDS011;48761;42.680;23.312;2022-12-29T13:26:55;37.28;;;22.48;;
62696;SDS011;48761;42.680;23.312;2022-12-29T13:29:40;34.08;;;23.00;;
62696;SDS011;48761;42.680;23.312;2022-12-29T13:37:50;37.92;;;22.30;;
62696;SDS011;48761;42.680;23.312;2022-12-29T13:40:21;35.20;;;21.58;;
62696;SDS011;48761;42.680;23.312;2022-12-29T13:42:51;40.63;;;22.10;;
62696;SDS011;48761;42.680;23.312;2022-12-29T13:45:19;32.28;;;20.77;;
62696;SDS011;48761;42.680;23.312;2022-12-29T13:50:24;40.90;;;22.52;;
62696;SDS011;48761;42.680;23.312;2022-12-29T13:53:00;40.72;;;22.98;;
62696;SDS011;48761;42.680;23.312;2022-12-29T13:55:54;34.38;;;21.90;;
62696;SDS011;48761;42.680;23.312;2022-12-29T14:01:03;38.17;;;22.13;;
62696;SDS011;48761;42.680;23.312;2022-12-29T14:08:50;38.30;;;22.92;;
62696;SDS011;48761;42.680;23.312;2022-12-29T14:11:20;38.17;;;23.88;;
62696;SDS011;48761;42.680;23.312;2022-12-29T14:13:48;44.00;;;23.50;;
62696;SDS011;48761;42.680;23.312;2022-12-29T14:16:28;39.75;;;24.25;;
62696;SDS011;48761;42.680;23.312;2022-12-29T14:19:32;44.22;;;24.73;;
62696;SDS011;48761;42.680;23.312;2022-12-29T14:22:04;40.38;;;25.17;;
62696;SDS011;48761;42.680;23.312;2022-12-29T14:27:00;43.42;;;24.17;;
62696;SDS011;48761;42.680;23.312;2022-12-29T14:29:49;46.67;;;26.10;;
62696;SDS011;48761;42.680;23.312;2022-12-29T14:34:52;43.55;;;25.10;;
62696;SDS011;48761;42.680;23.312;2022-12-29T14:37:23;43.78;;;25.45;;
62696;SDS011;48761;42.680;23.312;2022-12-29T14:40:14;38.42;;;24.05;;
62696;SDS011;48761;42.680;23.312;2022-12-29T14:42:41;47.10;;;26.63;;
62696;SDS011;48761;42.680;23.312;2022-12-29T14:45:20;41.88;;;25.65;;
62696;SDS011;48761;42.680;23.312;2022-12-29T14:47:54;41.65;;;25.38;;
62696;SDS011;48761;42.680;23.312;2022-12-29T14:50:40;40.22;;;24.55;;
62696;SDS011;48761;42.680;23.312;2022-12-29T14:56:13;41.20;;;23.95;;
62696;SDS011;48761;42.680;23.312;2022-12-29T15:01:22;44.60;;;24.25;;
62696;SDS011;48761;42.680;23.312;2022-12-29T15:03:59;46.15;;;25.42;;
62696;SDS011;48761;42.680;23.312;2022-12-29T15:06:30;43.00;;;25.50;;
62696;SDS011;48761;42.680;23.312;2022-12-29T15:09:08;41.13;;;25.50;;
62696;SDS011;48761;42.680;23.312;2022-12-29T15:11:52;44.78;;;25.08;;
62696;SDS011;48761;42.680;23.312;2022-12-29T15:16:53;36.05;;;23.15;;
62696;SDS011;48761;42.680;23.312;2022-12-29T15:19:22;42.13;;;26.13;;
62696;SDS011;48761;42.680;23.312;2022-12-29T15:21:49;45.30;;;25.30;;
62696;SDS011;48761;42.680;23.312;2022-12-29T15:24:15;40.03;;;24.40;;
62696;SDS011;48761;42.680;23.312;2022-12-29T15:26:49;45.40;;;25.35;;
62696;SDS011;48761;42.680;23.312;2022-12-29T15:32:17;43.20;;;25.60;;
62696;SDS011;48761;42.680;23.312;2022-12-29T15:34:46;46.95;;;26.88;;
62696;SDS011;48761;42.680;23.312;2022-12-29T15:37:17;40.50;;;24.48;;
62696;SDS011;48761;42.680;23.312;2022-12-29T15:39:48;44.08;;;25.50;;
62696;SDS011;48761;42.680;23.312;2022-12-29T15:44:49;46.53;;;25.67;;
62696;SDS011;48761;42.680;23.312;2022-12-29T15:47:20;56.28;;;26.33;;
62696;SDS011;48761;42.680;23.312;2022-12-29T15:49:49;51.05;;;28.67;;
62696;SDS011;48761;42.680;23.312;2022-12-29T15:52:19;57.53;;;33.22;;
62696;SDS011;48761;42.680;23.312;2022-12-29T15:54:47;59.08;;;33.42;;
62696;SDS011;48761;42.680;23.312;2022-12-29T15:57:22;60.60;;;33.35;;
62696;SDS011;48761;42.680;23.312;2022-12-29T15:59:50;58.10;;;32.88;;
62696;SDS011;48761;42.680;23.312;2022-12-29T16:02:16;67.47;;;35.83;;
62696;SDS011;48761;42.680;23.312;2022-12-29T16:04:43;58.72;;;36.00;;
62696;SDS011;48761;42.680;23.312;2022-12-29T16:07:22;63.80;;;34.97;;
62696;SDS011;48761;42.680;23.312;2022-12-29T16:09:53;59.60;;;33.65;;
62696;SDS011;48761;42.680;23.312;2022-12-29T16:12:21;65.80;;;35.33;;
62696;SDS011;48761;42.680;23.312;2022-12-29T16:14:59;57.42;;;33.85;;
62696;SDS011;48761;42.680;23.312;2022-12-29T16:17:28;68.13;;;34.35;;
62696;SDS011;48761;42.680;23.312;2022-12-29T16:20:01;66.93;;;35.40;;
62696;SDS011;48761;42.680;23.312;2022-12-29T16:22:31;56.10;;;33.05;;
62696;SDS011;48761;42.680;23.312;2022-12-29T16:25:02;65.65;;;35.97;;
62696;SDS011;48761;42.680;23.312;2022-12-29T16:27:33;73.65;;;39.97;;
62696;SDS011;48761;42.680;23.312;2022-12-29T16:30:06;64.82;;;36.92;;
62696;SDS011;48761;42.680;23.312;2022-12-29T16:32:45;68.32;;;38.42;;
62696;SDS011;48761;42.680;23.312;2022-12-29T16:35:23;67.35;;;37.83;;
62696;SDS011;48761;42.680;23.312;2022-12-29T16:40:49;69.40;;;37.92;;
62696;SDS011;48761;42.680;23.312;2022-12-29T16:43:23;69.32;;;35.22;;
62696;SDS011;48761;42.680;23.312;2022-12-29T16:49:02;78.32;;;35.72;;
62696;SDS011;48761;42.680;23.312;2022-12-29T16:51:31;62.25;;;35.38;;
62696;SDS011;48761;42.680;23.312;2022-12-29T16:56:26;62.03;;;35.42;;
62696;SDS011;48761;42.680;23.312;2022-12-29T17:01:42;73.63;;;35.47;;